sensor_id;sensor_type;location;lat;lon;timestamp;temperature;humidity
65582;DHT22;52231;40.090;18.348;2022-10-17T00:01:06;13.90;93.80
65582;DHT22;52231;40.090;18.348;2022-10-17T00:03:36;13.80;93.80
65582;DHT22;52231;40.090;18.348;2022-10-17T00:06:07;13.80;93.80
65582;DHT22;52231;40.090;18.348;2022-10-17T00:08:36;13.70;93.70
65582;DHT22;52231;40.090;18.348;2022-10-17T00:11:07;13.50;93.40
65582;DHT22;52231;40.090;18.348;2022-10-17T00:13:36;13.30;93.30
65582;DHT22;52231;40.090;18.348;2022-10-17T00:16:04;13.20;93.20
65582;DHT22;52231;40.090;18.348;2022-10-17T00:18:32;13.10;93.20
65582;DHT22;52231;40.090;18.348;2022-10-17T00:21:00;13.10;93.30
65582;DHT22;52231;40.090;18.348;2022-10-17T00:23:28;13.10;93.30
65582;DHT22;52231;40.090;18.348;2022-10-17T00:25:58;13.00;93.30
65582;DHT22;52231;40.090;18.348;2022-10-17T00:28:27;13.00;93.30
65582;DHT22;52231;40.090;18.348;2022-10-17T00:30:57;13.00;93.40
65582;DHT22;52231;40.090;18.348;2022-10-17T00:33:28;13.00;93.30
65582;DHT22;52231;40.090;18.348;2022-10-17T00:36:11;13.00;93.30
65582;DHT22;52231;40.090;18.348;2022-10-17T00:38:42;13.00;93.30
65582;DHT22;52231;40.090;18.348;2022-10-17T00:41:12;13.00;93.40
65582;DHT22;52231;40.090;18.348;2022-10-17T00:43:56;13.00;93.30
65582;DHT22;52231;40.090;18.348;2022-10-17T00:46:28;13.00;93.40
65582;DHT22;52231;40.090;18.348;2022-10-17T00:48:58;12.90;93.40
65582;DHT22;52231;40.090;18.348;2022-10-17T00:51:41;12.90;93.40
65582;DHT22;52231;40.090;18.348;2022-10-17T00:54:12;12.90;93.40
65582;DHT22;52231;40.090;18.348;2022-10-17T00:56:42;12.90;93.40
65582;DHT22;52231;40.090;18.348;2022-10-17T00:59:11;12.90;93.50
65582;DHT22;52231;40.090;18.348;2022-10-17T01:01:43;12.90;93.50
65582;DHT22;52231;40.090;18.348;2022-10-17T01:04:31;12.90;93.40
65582;DHT22;52231;40.090;18.348;2022-10-17T01:06:59;12.90;93.50
65582;DHT22;52231;40.090;18.348;2022-10-17T01:09:27;12.80;93.40
65582;DHT22;52231;40.090;18.348;2022-10-17T01:12:17;12.80;93.40
65582;DHT22;52231;40.090;18.348;2022-10-17T01:15:02;12.70;93.30
65582;DHT22;52231;40.090;18.348;2022-10-17T01:32:08;12.60;93.20
65582;DHT22;52231;40.090;18.348;2022-10-17T01:43:02;12.60;93.20
65582;DHT22;52231;40.090;18.348;2022-10-17T01:45:33;12.60;93.30
65582;DHT22;52231;40.090;18.348;2022-10-17T01:48:12;12.60;93.30
65582;DHT22;52231;40.090;18.348;2022-10-17T01:50:47;12.60;93.20
65582;DHT22;52231;40.090;18.348;2022-10-17T01:53:35;12.70;93.20
65582;DHT22;52231;40.090;18.348;2022-10-17T01:56:06;12.80;93.30
65582;DHT22;52231;40.090;18.348;2022-10-17T01:58:49;12.80;93.30
65582;DHT22;52231;40.090;18.348;2022-10-17T02:01:20;12.90;93.30
65582;DHT22;52231;40.090;18.348;2022-10-17T02:03:50;12.90;93.30
65582;DHT22;52231;40.090;18.348;2022-10-17T02:06:20;12.90;93.30
65582;DHT22;52231;40.090;18.348;2022-10-17T02:08:50;12.90;93.30
65582;DHT22;52231;40.090;18.348;2022-10-17T02:11:25;13.00;93.30
65582;DHT22;52231;40.090;18.348;2022-10-17T02:14:18;13.00;93.30
65582;DHT22;52231;40.090;18.348;2022-10-17T02:22:53;13.30;93.50
65582;DHT22;52231;40.090;18.348;2022-10-17T02:25:50;13.30;93.50
65582;DHT22;52231;40.090;18.348;2022-10-17T02:31:30;13.30;93.50
65582;DHT22;52231;40.090;18.348;2022-10-17T02:34:08;13.30;93.50
65582;DHT22;52231;40.090;18.348;2022-10-17T02:36:42;13.20;93.60
65582;DHT22;52231;40.090;18.348;2022-10-17T02:39:12;13.20;93.60
65582;DHT22;52231;40.090;18.348;2022-10-17T02:41:43;13.30;93.70
65582;DHT22;52231;40.090;18.348;2022-10-17T02:44:12;13.30;93.70
65582;DHT22;52231;40.090;18.348;2022-10-17T02:46:41;13.30;93.80
65582;DHT22;52231;40.090;18.348;2022-10-17T02:49:32;13.30;93.80
65582;DHT22;52231;40.090;18.348;2022-10-17T02:52:11;13.40;93.90
65582;DHT22;52231;40.090;18.348;2022-10-17T02:57:37;13.40;93.90
65582;DHT22;52231;40.090;18.348;2022-10-17T03:00:10;13.40;93.90
65582;DHT22;52231;40.090;18.348;2022-10-17T03:02:57;13.40;93.90
65582;DHT22;52231;40.090;18.348;2022-10-17T03:05:27;13.40;93.90
65582;DHT22;52231;40.090;18.348;2022-10-17T03:07:56;13.40;93.90
65582;DHT22;52231;40.090;18.348;2022-10-17T03:10:24;13.50;94.00
65582;DHT22;52231;40.090;18.348;2022-10-17T03:12:52;13.50;94.00
65582;DHT22;52231;40.090;18.348;2022-10-17T03:15:20;13.50;94.00
65582;DHT22;52231;40.090;18.348;2022-10-17T03:17:48;13.40;94.00
65582;DHT22;52231;40.090;18.348;2022-10-17T03:20:17;13.40;94.00
65582;DHT22;52231;40.090;18.348;2022-10-17T03:22:46;13.50;94.00
65582;DHT22;52231;40.090;18.348;2022-10-17T03:25:14;13.50;94.00
65582;DHT22;52231;40.090;18.348;2022-10-17T03:27:42;13.50;94.00
65582;DHT22;52231;40.090;18.348;2022-10-17T03:30:10;13.40;94.00
65582;DHT22;52231;40.090;18.348;2022-10-17T03:32:39;13.40;94.00
65582;DHT22;52231;40.090;18.348;2022-10-17T03:35:07;13.40;94.10
65582;DHT22;52231;40.090;18.348;2022-10-17T03:37:39;13.40;94.00
65582;DHT22;52231;40.090;18.348;2022-10-17T03:40:07;13.40;94.10
65582;DHT22;52231;40.090;18.348;2022-10-17T03:42:35;13.40;94.00
65582;DHT22;52231;40.090;18.348;2022-10-17T03:45:04;13.30;94.00
65582;DHT22;52231;40.090;18.348;2022-10-17T03:47:32;13.40;94.10
65582;DHT22;52231;40.090;18.348;2022-10-17T03:50:00;13.30;94.00
65582;DHT22;52231;40.090;18.348;2022-10-17T03:52:31;13.40;94.10
65582;DHT22;52231;40.090;18.348;2022-10-17T03:55:00;13.50;94.10
65582;DHT22;52231;40.090;18.348;2022-10-17T03:57:29;13.50;94.10
65582;DHT22;52231;40.090;18.348;2022-10-17T03:59:58;13.50;94.20
65582;DHT22;52231;40.090;18.348;2022-10-17T04:02:26;13.50;94.20
65582;DHT22;52231;40.090;18.348;2022-10-17T04:04:54;13.50;94.20
65582;DHT22;52231;40.090;18.348;2022-10-17T04:07:22;13.50;94.20
65582;DHT22;52231;40.090;18.348;2022-10-17T04:09:50;13.60;94.30
65582;DHT22;52231;40.090;18.348;2022-10-17T04:12:21;13.60;94.30
65582;DHT22;52231;40.090;18.348;2022-10-17T04:14:49;13.60;94.30
65582;DHT22;52231;40.090;18.348;2022-10-17T04:17:18;13.60;94.30
65582;DHT22;52231;40.090;18.348;2022-10-17T04:19:48;13.60;94.30
65582;DHT22;52231;40.090;18.348;2022-10-17T04:22:17;13.60;94.30
65582;DHT22;52231;40.090;18.348;2022-10-17T04:24:46;13.60;94.40
65582;DHT22;52231;40.090;18.348;2022-10-17T04:27:27;13.60;94.40
65582;DHT22;52231;40.090;18.348;2022-10-17T04:29:55;13.70;94.40
65582;DHT22;52231;40.090;18.348;2022-10-17T04:32:24;13.70;94.40
65582;DHT22;52231;40.090;18.348;2022-10-17T04:35:21;13.70;94.40
65582;DHT22;52231;40.090;18.348;2022-10-17T04:37:57;13.80;94.50
65582;DHT22;52231;40.090;18.348;2022-10-17T04:40:25;13.80;94.50
65582;DHT22;52231;40.090;18.348;2022-10-17T04:42:55;13.80;94.50
65582;DHT22;52231;40.090;18.348;2022-10-17T04:45:31;13.80;94.50
65582;DHT22;52231;40.090;18.348;2022-10-17T04:48:02;13.80;94.50
65582;DHT22;52231;40.090;18.348;2022-10-17T04:50:30;13.80;94.50
65582;DHT22;52231;40.090;18.348;2022-10-17T04:53:19;13.80;94.50
65582;DHT22;52231;40.090;18.348;2022-10-17T04:55:48;13.80;94.50
65582;DHT22;52231;40.090;18.348;2022-10-17T04:58:17;13.80;94.50
65582;DHT22;52231;40.090;18.348;2022-10-17T05:00:46;13.80;94.50
65582;DHT22;52231;40.090;18.348;2022-10-17T05:03:20;13.90;94.50
65582;DHT22;52231;40.090;18.348;2022-10-17T05:05:49;13.90;94.50
65582;DHT22;52231;40.090;18.348;2022-10-17T05:08:18;13.90;94.60
65582;DHT22;52231;40.090;18.348;2022-10-17T05:10:47;13.90;94.60
65582;DHT22;52231;40.090;18.348;2022-10-17T05:13:15;14.00;94.60
65582;DHT22;52231;40.090;18.348;2022-10-17T05:15:43;14.00;94.60
65582;DHT22;52231;40.090;18.348;2022-10-17T05:18:12;14.10;94.60
65582;DHT22;52231;40.090;18.348;2022-10-17T05:20:42;14.20;94.60
65582;DHT22;52231;40.090;18.348;2022-10-17T05:23:10;14.20;94.70
65582;DHT22;52231;40.090;18.348;2022-10-17T05:25:42;14.30;94.70
65582;DHT22;52231;40.090;18.348;2022-10-17T05:28:11;14.30;94.70
65582;DHT22;52231;40.090;18.348;2022-10-17T05:30:41;14.30;94.70
65582;DHT22;52231;40.090;18.348;2022-10-17T05:33:10;14.40;94.70
65582;DHT22;52231;40.090;18.348;2022-10-17T05:35:39;14.40;94.70
65582;DHT22;52231;40.090;18.348;2022-10-17T05:38:08;14.50;94.70
65582;DHT22;52231;40.090;18.348;2022-10-17T05:40:39;14.50;94.70
65582;DHT22;52231;40.090;18.348;2022-10-17T05:43:07;14.50;94.80
65582;DHT22;52231;40.090;18.348;2022-10-17T05:45:36;14.60;94.80
65582;DHT22;52231;40.090;18.348;2022-10-17T05:48:07;14.80;94.80
65582;DHT22;52231;40.090;18.348;2022-10-17T05:51:02;14.90;94.80
65582;DHT22;52231;40.090;18.348;2022-10-17T05:53:32;15.00;94.80
65582;DHT22;52231;40.090;18.348;2022-10-17T05:56:19;15.10;94.90
65582;DHT22;52231;40.090;18.348;2022-10-17T05:58:48;15.30;94.90
65582;DHT22;52231;40.090;18.348;2022-10-17T06:01:27;15.30;94.90
65582;DHT22;52231;40.090;18.348;2022-10-17T06:03:56;15.40;94.90
65582;DHT22;52231;40.090;18.348;2022-10-17T06:06:24;15.50;94.90
65582;DHT22;52231;40.090;18.348;2022-10-17T06:08:52;15.60;94.80
65582;DHT22;52231;40.090;18.348;2022-10-17T06:11:26;15.70;94.80
65582;DHT22;52231;40.090;18.348;2022-10-17T06:14:12;15.80;94.90
65582;DHT22;52231;40.090;18.348;2022-10-17T06:16:41;15.90;94.90
65582;DHT22;52231;40.090;18.348;2022-10-17T06:19:10;16.10;94.90
65582;DHT22;52231;40.090;18.348;2022-10-17T06:21:38;16.20;94.90
65582;DHT22;52231;40.090;18.348;2022-10-17T06:24:13;16.40;94.90
65582;DHT22;52231;40.090;18.348;2022-10-17T06:26:42;16.60;94.90
65582;DHT22;52231;40.090;18.348;2022-10-17T06:29:13;16.60;94.90
65582;DHT22;52231;40.090;18.348;2022-10-17T06:31:46;16.70;94.80
65582;DHT22;52231;40.090;18.348;2022-10-17T06:34:14;16.80;94.80
65582;DHT22;52231;40.090;18.348;2022-10-17T06:36:42;16.90;94.80
65582;DHT22;52231;40.090;18.348;2022-10-17T06:39:11;17.00;94.80
65582;DHT22;52231;40.090;18.348;2022-10-17T06:41:48;17.10;94.60
65582;DHT22;52231;40.090;18.348;2022-10-17T06:44:18;17.30;94.60
65582;DHT22;52231;40.090;18.348;2022-10-17T06:46:59;17.40;94.50
65582;DHT22;52231;40.090;18.348;2022-10-17T06:49:28;17.60;94.40
65582;DHT22;52231;40.090;18.348;2022-10-17T06:52:00;17.90;94.20
65582;DHT22;52231;40.090;18.348;2022-10-17T06:54:51;18.30;93.90
65582;DHT22;52231;40.090;18.348;2022-10-17T06:57:42;18.70;93.30
65582;DHT22;52231;40.090;18.348;2022-10-17T07:00:29;19.00;92.30
65582;DHT22;52231;40.090;18.348;2022-10-17T07:03:15;19.50;91.50
65582;DHT22;52231;40.090;18.348;2022-10-17T07:05:50;19.70;90.20
65582;DHT22;52231;40.090;18.348;2022-10-17T07:08:19;19.90;88.90
65582;DHT22;52231;40.090;18.348;2022-10-17T07:10:47;20.10;87.90
65582;DHT22;52231;40.090;18.348;2022-10-17T07:13:16;20.30;86.70
65582;DHT22;52231;40.090;18.348;2022-10-17T07:15:45;20.50;86.30
65582;DHT22;52231;40.090;18.348;2022-10-17T07:18:14;20.70;85.00
65582;DHT22;52231;40.090;18.348;2022-10-17T07:20:41;20.80;84.50
65582;DHT22;52231;40.090;18.348;2022-10-17T07:23:09;20.90;84.20
65582;DHT22;52231;40.090;18.348;2022-10-17T07:25:38;21.20;83.60
65582;DHT22;52231;40.090;18.348;2022-10-17T07:28:08;21.50;83.20
65582;DHT22;52231;40.090;18.348;2022-10-17T07:30:36;21.80;82.70
65582;DHT22;52231;40.090;18.348;2022-10-17T07:33:08;21.90;81.40
65582;DHT22;52231;40.090;18.348;2022-10-17T07:35:37;22.20;81.00
65582;DHT22;52231;40.090;18.348;2022-10-17T07:38:07;22.30;80.20
65582;DHT22;52231;40.090;18.348;2022-10-17T07:40:36;22.40;79.50
65582;DHT22;52231;40.090;18.348;2022-10-17T07:43:04;22.70;79.60
65582;DHT22;52231;40.090;18.348;2022-10-17T07:45:33;22.80;78.20
65582;DHT22;52231;40.090;18.348;2022-10-17T07:48:01;23.00;78.40
65582;DHT22;52231;40.090;18.348;2022-10-17T07:50:31;23.10;77.30
65582;DHT22;52231;40.090;18.348;2022-10-17T07:52:59;23.30;77.00
65582;DHT22;52231;40.090;18.348;2022-10-17T07:55:27;23.60;76.30
65582;DHT22;52231;40.090;18.348;2022-10-17T07:57:56;23.60;74.60
65582;DHT22;52231;40.090;18.348;2022-10-17T08:00:26;23.30;75.10
65582;DHT22;52231;40.090;18.348;2022-10-17T08:02:54;22.90;75.80
65582;DHT22;52231;40.090;18.348;2022-10-17T08:05:21;22.60;76.20
65582;DHT22;52231;40.090;18.348;2022-10-17T08:07:50;22.30;76.60
65582;DHT22;52231;40.090;18.348;2022-10-17T08:10:18;21.90;77.30
65582;DHT22;52231;40.090;18.348;2022-10-17T08:12:46;21.80;78.20
65582;DHT22;52231;40.090;18.348;2022-10-17T08:15:14;21.50;79.30
65582;DHT22;52231;40.090;18.348;2022-10-17T08:17:42;21.90;78.90
65582;DHT22;52231;40.090;18.348;2022-10-17T08:20:11;22.40;77.50
65582;DHT22;52231;40.090;18.348;2022-10-17T08:22:39;22.90;75.50
65582;DHT22;52231;40.090;18.348;2022-10-17T08:25:07;22.80;74.70
65582;DHT22;52231;40.090;18.348;2022-10-17T08:27:35;22.90;74.30
65582;DHT22;52231;40.090;18.348;2022-10-17T08:30:04;22.60;74.10
65582;DHT22;52231;40.090;18.348;2022-10-17T08:32:32;22.50;75.60
65582;DHT22;52231;40.090;18.348;2022-10-17T08:35:00;22.50;75.90
65582;DHT22;52231;40.090;18.348;2022-10-17T08:37:28;22.40;75.70
65582;DHT22;52231;40.090;18.348;2022-10-17T08:39:58;22.30;76.00
65582;DHT22;52231;40.090;18.348;2022-10-17T08:42:42;22.20;75.80
65582;DHT22;52231;40.090;18.348;2022-10-17T08:47:51;23.00;73.90
65582;DHT22;52231;40.090;18.348;2022-10-17T08:50:36;23.50;73.30
65582;DHT22;52231;40.090;18.348;2022-10-17T08:55:54;24.10;68.30
65582;DHT22;52231;40.090;18.348;2022-10-17T08:58:28;23.90;69.30
65582;DHT22;52231;40.090;18.348;2022-10-17T09:13:21;24.60;65.10
65582;DHT22;52231;40.090;18.348;2022-10-17T09:18:40;25.10;63.70
65582;DHT22;52231;40.090;18.348;2022-10-17T09:23:46;25.80;62.60
65582;DHT22;52231;40.090;18.348;2022-10-17T09:26:33;25.60;62.30
65582;DHT22;52231;40.090;18.348;2022-10-17T09:29:04;25.30;61.10
65582;DHT22;52231;40.090;18.348;2022-10-17T09:32:03;24.80;62.50
65582;DHT22;52231;40.090;18.348;2022-10-17T09:34:32;24.60;63.60
65582;DHT22;52231;40.090;18.348;2022-10-17T09:37:00;25.00;63.90
65582;DHT22;52231;40.090;18.348;2022-10-17T09:39:28;25.50;61.60
65582;DHT22;52231;40.090;18.348;2022-10-17T09:42:00;25.50;60.80
65582;DHT22;52231;40.090;18.348;2022-10-17T09:49:39;25.80;61.80
65582;DHT22;52231;40.090;18.348;2022-10-17T09:52:29;25.90;59.80
65582;DHT22;52231;40.090;18.348;2022-10-17T09:55:17;25.80;59.80
65582;DHT22;52231;40.090;18.348;2022-10-17T09:57:57;25.90;60.50
65582;DHT22;52231;40.090;18.348;2022-10-17T10:00:26;25.60;59.90
65582;DHT22;52231;40.090;18.348;2022-10-17T10:06:13;25.30;62.00
65582;DHT22;52231;40.090;18.348;2022-10-17T10:08:56;25.60;61.90
65582;DHT22;52231;40.090;18.348;2022-10-17T10:11:47;25.90;61.30
65582;DHT22;52231;40.090;18.348;2022-10-17T10:14:36;26.30;59.20
65582;DHT22;52231;40.090;18.348;2022-10-17T10:17:40;26.00;59.40
65582;DHT22;52231;40.090;18.348;2022-10-17T10:20:31;25.60;59.60
65582;DHT22;52231;40.090;18.348;2022-10-17T10:23:13;25.80;60.20
65582;DHT22;52231;40.090;18.348;2022-10-17T10:25:56;25.70;59.60
65582;DHT22;52231;40.090;18.348;2022-10-17T10:28:32;25.90;59.70
65582;DHT22;52231;40.090;18.348;2022-10-17T10:31:06;26.20;58.80
65582;DHT22;52231;40.090;18.348;2022-10-17T10:33:35;26.40;57.90
65582;DHT22;52231;40.090;18.348;2022-10-17T10:36:08;26.30;55.90
65582;DHT22;52231;40.090;18.348;2022-10-17T10:38:39;26.60;56.10
65582;DHT22;52231;40.090;18.348;2022-10-17T10:41:10;26.60;55.40
65582;DHT22;52231;40.090;18.348;2022-10-17T10:43:40;26.70;56.40
65582;DHT22;52231;40.090;18.348;2022-10-17T10:46:26;26.80;56.70
65582;DHT22;52231;40.090;18.348;2022-10-17T10:49:00;26.70;57.50
65582;DHT22;52231;40.090;18.348;2022-10-17T10:51:48;26.40;58.20
65582;DHT22;52231;40.090;18.348;2022-10-17T10:54:21;26.40;58.90
65582;DHT22;52231;40.090;18.348;2022-10-17T10:56:57;26.30;57.70
65582;DHT22;52231;40.090;18.348;2022-10-17T10:59:30;26.30;57.70
65582;DHT22;52231;40.090;18.348;2022-10-17T11:02:23;26.60;56.60
65582;DHT22;52231;40.090;18.348;2022-10-17T11:07:49;27.30;55.50
65582;DHT22;52231;40.090;18.348;2022-10-17T11:10:36;26.70;55.60
65582;DHT22;52231;40.090;18.348;2022-10-17T11:13:18;26.20;57.10
65582;DHT22;52231;40.090;18.348;2022-10-17T11:16:21;26.10;57.40
65582;DHT22;52231;40.090;18.348;2022-10-17T11:22:15;27.00;55.80
65582;DHT22;52231;40.090;18.348;2022-10-17T11:27:17;26.50;56.60
65582;DHT22;52231;40.090;18.348;2022-10-17T11:29:45;26.40;57.10
65582;DHT22;52231;40.090;18.348;2022-10-17T11:32:36;25.90;58.40
65582;DHT22;52231;40.090;18.348;2022-10-17T11:40:35;25.40;60.90
65582;DHT22;52231;40.090;18.348;2022-10-17T11:45:46;25.80;58.70
65582;DHT22;52231;40.090;18.348;2022-10-17T11:48:38;25.80;58.30
65582;DHT22;52231;40.090;18.348;2022-10-17T11:51:10;25.20;58.60
65582;DHT22;52231;40.090;18.348;2022-10-17T11:54:13;24.80;60.00
65582;DHT22;52231;40.090;18.348;2022-10-17T11:56:50;24.90;59.10
65582;DHT22;52231;40.090;18.348;2022-10-17T12:02:05;25.30;56.20
65582;DHT22;52231;40.090;18.348;2022-10-17T12:07:32;25.80;57.00
65582;DHT22;52231;40.090;18.348;2022-10-17T12:10:36;26.10;56.50
65582;DHT22;52231;40.090;18.348;2022-10-17T12:30:02;25.60;58.80
65582;DHT22;52231;40.090;18.348;2022-10-17T12:32:32;25.60;56.80
65582;DHT22;52231;40.090;18.348;2022-10-17T12:35:03;25.30;57.70
65582;DHT22;52231;40.090;18.348;2022-10-17T12:46:01;25.00;57.10
65582;DHT22;52231;40.090;18.348;2022-10-17T12:51:10;24.90;54.70
65582;DHT22;52231;40.090;18.348;2022-10-17T12:54:09;24.80;56.00
65582;DHT22;52231;40.090;18.348;2022-10-17T12:56:42;24.80;55.60
65582;DHT22;52231;40.090;18.348;2022-10-17T12:59:24;24.70;56.50
65582;DHT22;52231;40.090;18.348;2022-10-17T13:02:18;24.70;56.70
65582;DHT22;52231;40.090;18.348;2022-10-17T13:04:48;24.60;56.00
65582;DHT22;52231;40.090;18.348;2022-10-17T13:07:21;24.60;56.30
65582;DHT22;52231;40.090;18.348;2022-10-17T13:09:50;24.50;56.10
65582;DHT22;52231;40.090;18.348;2022-10-17T13:12:24;24.40;56.20
65582;DHT22;52231;40.090;18.348;2022-10-17T13:14:54;24.30;55.90
65582;DHT22;52231;40.090;18.348;2022-10-17T13:17:25;24.20;56.70
65582;DHT22;52231;40.090;18.348;2022-10-17T13:19:55;24.10;56.70
65582;DHT22;52231;40.090;18.348;2022-10-17T13:22:26;24.10;57.30
65582;DHT22;52231;40.090;18.348;2022-10-17T13:25:07;24.00;56.30
65582;DHT22;52231;40.090;18.348;2022-10-17T13:27:37;23.80;56.30
65582;DHT22;52231;40.090;18.348;2022-10-17T13:30:29;23.60;58.20
65582;DHT22;52231;40.090;18.348;2022-10-17T13:32:58;23.60;57.70
65582;DHT22;52231;40.090;18.348;2022-10-17T13:35:35;23.60;56.90
65582;DHT22;52231;40.090;18.348;2022-10-17T13:38:44;23.50;56.80
65582;DHT22;52231;40.090;18.348;2022-10-17T13:41:14;23.50;57.30
65582;DHT22;52231;40.090;18.348;2022-10-17T13:44:21;23.40;57.30
65582;DHT22;52231;40.090;18.348;2022-10-17T13:46:51;23.30;57.80
65582;DHT22;52231;40.090;18.348;2022-10-17T13:49:38;23.20;58.60
65582;DHT22;52231;40.090;18.348;2022-10-17T13:52:18;23.10;59.40
65582;DHT22;52231;40.090;18.348;2022-10-17T13:54:49;22.80;60.00
65582;DHT22;52231;40.090;18.348;2022-10-17T13:57:26;22.80;59.70
65582;DHT22;52231;40.090;18.348;2022-10-17T13:59:57;22.50;58.00
65582;DHT22;52231;40.090;18.348;2022-10-17T14:11:35;22.30;57.80
65582;DHT22;52231;40.090;18.348;2022-10-17T14:14:06;22.20;56.30
65582;DHT22;52231;40.090;18.348;2022-10-17T14:16:37;22.20;57.40
65582;DHT22;52231;40.090;18.348;2022-10-17T14:19:31;22.10;58.90
65582;DHT22;52231;40.090;18.348;2022-10-17T14:24:50;22.00;59.40
65582;DHT22;52231;40.090;18.348;2022-10-17T14:29:55;21.90;60.60
65582;DHT22;52231;40.090;18.348;2022-10-17T14:32:29;21.90;62.50
65582;DHT22;52231;40.090;18.348;2022-10-17T14:35:00;21.90;64.30
65582;DHT22;52231;40.090;18.348;2022-10-17T14:37:45;21.90;65.30
65582;DHT22;52231;40.090;18.348;2022-10-17T14:40:20;21.80;66.00
65582;DHT22;52231;40.090;18.348;2022-10-17T14:42:55;21.80;67.00
65582;DHT22;52231;40.090;18.348;2022-10-17T14:47:53;21.70;69.20
65582;DHT22;52231;40.090;18.348;2022-10-17T14:50:24;21.70;69.50
65582;DHT22;52231;40.090;18.348;2022-10-17T14:55:39;21.60;70.60
65582;DHT22;52231;40.090;18.348;2022-10-17T14:58:21;21.50;70.30
65582;DHT22;52231;40.090;18.348;2022-10-17T15:00:51;21.40;70.60
65582;DHT22;52231;40.090;18.348;2022-10-17T15:03:19;21.30;71.00
65582;DHT22;52231;40.090;18.348;2022-10-17T15:05:48;21.30;71.50
65582;DHT22;52231;40.090;18.348;2022-10-17T15:08:19;21.20;71.80
65582;DHT22;52231;40.090;18.348;2022-10-17T15:10:48;21.10;72.00
65582;DHT22;52231;40.090;18.348;2022-10-17T15:13:17;21.00;72.10
65582;DHT22;52231;40.090;18.348;2022-10-17T15:15:54;20.90;72.60
65582;DHT22;52231;40.090;18.348;2022-10-17T15:18:22;20.90;73.30
65582;DHT22;52231;40.090;18.348;2022-10-17T15:20:50;20.80;73.50
65582;DHT22;52231;40.090;18.348;2022-10-17T15:23:18;20.70;73.50
65582;DHT22;52231;40.090;18.348;2022-10-17T15:25:47;20.60;74.10
65582;DHT22;52231;40.090;18.348;2022-10-17T15:28:15;20.50;74.70
65582;DHT22;52231;40.090;18.348;2022-10-17T15:30:43;20.50;75.30
65582;DHT22;52231;40.090;18.348;2022-10-17T15:33:11;20.40;75.50
65582;DHT22;52231;40.090;18.348;2022-10-17T15:35:39;20.30;75.50
65582;DHT22;52231;40.090;18.348;2022-10-17T15:38:12;20.30;76.40
65582;DHT22;52231;40.090;18.348;2022-10-17T15:40:43;20.20;77.30
65582;DHT22;52231;40.090;18.348;2022-10-17T15:43:11;20.20;78.10
65582;DHT22;52231;40.090;18.348;2022-10-17T15:45:42;20.10;78.60
65582;DHT22;52231;40.090;18.348;2022-10-17T15:48:18;20.00;79.20
65582;DHT22;52231;40.090;18.348;2022-10-17T15:50:47;19.90;79.40
65582;DHT22;52231;40.090;18.348;2022-10-17T15:53:15;19.90;79.70
65582;DHT22;52231;40.090;18.348;2022-10-17T15:55:43;19.80;80.00
65582;DHT22;52231;40.090;18.348;2022-10-17T15:58:14;19.70;80.10
65582;DHT22;52231;40.090;18.348;2022-10-17T16:00:43;19.60;80.40
65582;DHT22;52231;40.090;18.348;2022-10-17T16:03:12;19.50;80.70
65582;DHT22;52231;40.090;18.348;2022-10-17T16:05:41;19.40;81.30
65582;DHT22;52231;40.090;18.348;2022-10-17T16:08:09;19.30;81.60
65582;DHT22;52231;40.090;18.348;2022-10-17T16:10:39;19.30;82.00
65582;DHT22;52231;40.090;18.348;2022-10-17T16:13:15;19.20;82.30
65582;DHT22;52231;40.090;18.348;2022-10-17T16:15:44;19.10;82.70
65582;DHT22;52231;40.090;18.348;2022-10-17T16:18:12;19.00;83.10
65582;DHT22;52231;40.090;18.348;2022-10-17T16:20:40;19.00;83.30
65582;DHT22;52231;40.090;18.348;2022-10-17T16:23:10;18.90;83.60
65582;DHT22;52231;40.090;18.348;2022-10-17T16:25:56;18.80;83.80
65582;DHT22;52231;40.090;18.348;2022-10-17T16:28:25;18.80;84.00
65582;DHT22;52231;40.090;18.348;2022-10-17T16:30:53;18.80;84.30
65582;DHT22;52231;40.090;18.348;2022-10-17T16:33:21;18.70;84.30
65582;DHT22;52231;40.090;18.348;2022-10-17T16:35:50;18.70;84.50
65582;DHT22;52231;40.090;18.348;2022-10-17T16:38:19;18.60;84.70
65582;DHT22;52231;40.090;18.348;2022-10-17T16:40:47;18.50;84.90
65582;DHT22;52231;40.090;18.348;2022-10-17T16:43:15;18.50;85.00
65582;DHT22;52231;40.090;18.348;2022-10-17T16:45:43;18.50;85.30
65582;DHT22;52231;40.090;18.348;2022-10-17T16:48:11;18.40;85.40
65582;DHT22;52231;40.090;18.348;2022-10-17T16:50:40;18.40;85.50
65582;DHT22;52231;40.090;18.348;2022-10-17T16:53:08;18.30;85.80
65582;DHT22;52231;40.090;18.348;2022-10-17T16:55:37;18.30;86.00
65582;DHT22;52231;40.090;18.348;2022-10-17T16:58:05;18.30;86.10
65582;DHT22;52231;40.090;18.348;2022-10-17T17:00:33;18.30;86.10
65582;DHT22;52231;40.090;18.348;2022-10-17T17:03:01;18.30;86.30
65582;DHT22;52231;40.090;18.348;2022-10-17T17:05:30;18.30;86.60
65582;DHT22;52231;40.090;18.348;2022-10-17T17:07:58;18.20;86.70
65582;DHT22;52231;40.090;18.348;2022-10-17T17:10:27;18.10;86.80
65582;DHT22;52231;40.090;18.348;2022-10-17T17:12:56;18.10;87.10
65582;DHT22;52231;40.090;18.348;2022-10-17T17:15:24;18.10;87.20
65582;DHT22;52231;40.090;18.348;2022-10-17T17:17:52;18.00;87.40
65582;DHT22;52231;40.090;18.348;2022-10-17T17:20:22;18.00;87.60
65582;DHT22;52231;40.090;18.348;2022-10-17T17:22:50;17.90;87.70
65582;DHT22;52231;40.090;18.348;2022-10-17T17:25:20;17.90;87.90
65582;DHT22;52231;40.090;18.348;2022-10-17T17:27:48;17.80;88.00
65582;DHT22;52231;40.090;18.348;2022-10-17T17:30:16;17.90;88.20
65582;DHT22;52231;40.090;18.348;2022-10-17T17:32:45;17.80;88.40
65582;DHT22;52231;40.090;18.348;2022-10-17T17:35:13;17.80;88.60
65582;DHT22;52231;40.090;18.348;2022-10-17T17:37:41;17.80;88.60
65582;DHT22;52231;40.090;18.348;2022-10-17T17:40:09;17.70;88.70
65582;DHT22;52231;40.090;18.348;2022-10-17T17:42:38;17.70;88.80
65582;DHT22;52231;40.090;18.348;2022-10-17T17:45:06;17.60;89.00
65582;DHT22;52231;40.090;18.348;2022-10-17T17:47:34;17.60;89.10
65582;DHT22;52231;40.090;18.348;2022-10-17T17:50:04;17.60;89.20
65582;DHT22;52231;40.090;18.348;2022-10-17T17:52:33;17.50;89.30
65582;DHT22;52231;40.090;18.348;2022-10-17T17:55:01;17.50;89.40
65582;DHT22;52231;40.090;18.348;2022-10-17T17:57:29;17.50;89.50
65582;DHT22;52231;40.090;18.348;2022-10-17T17:59:58;17.50;89.60
65582;DHT22;52231;40.090;18.348;2022-10-17T18:02:26;17.40;89.80
65582;DHT22;52231;40.090;18.348;2022-10-17T18:04:54;17.40;89.90
65582;DHT22;52231;40.090;18.348;2022-10-17T18:07:23;17.30;90.00